sensor_id;sensor_type;location;lat;lon;timestamp;pressure;altitude;pressure_sealevel;temperature;humidity
9764;BME280;4921;43.214;27.936;2022-10-13T00:00:29;101820.25;;;16.85;98.52
9764;BME280;4921;43.214;27.936;2022-10-13T00:02:58;101816.19;;;16.81;98.68
9764;BME280;4921;43.214;27.936;2022-10-13T00:05:27;101820.50;;;16.82;98.94
9764;BME280;4921;43.214;27.936;2022-10-13T00:07:54;101821.34;;;16.83;98.96
9764;BME280;4921;43.214;27.936;2022-10-13T00:10:21;101816.72;;;16.75;98.93
9764;BME280;4921;43.214;27.936;2022-10-13T00:12:48;101819.38;;;16.75;99.40
9764;BME280;4921;43.214;27.936;2022-10-13T00:15:16;101809.31;;;16.78;98.74
9764;BME280;4921;43.214;27.936;2022-10-13T00:17:43;101825.25;;;16.78;98.68
9764;BME280;4921;43.214;27.936;2022-10-13T00:20:10;101814.75;;;16.77;98.94
9764;BME280;4921;43.214;27.936;2022-10-13T00:22:39;101815.88;;;16.74;99.68
9764;BME280;4921;43.214;27.936;2022-10-13T00:25:06;101811.13;;;16.78;99.45
9764;BME280;4921;43.214;27.936;2022-10-13T00:27:33;101805.69;;;16.80;98.73
9764;BME280;4921;43.214;27.936;2022-10-13T00:30:00;101803.84;;;16.80;98.65
9764;BME280;4921;43.214;27.936;2022-10-13T00:32:28;101812.25;;;16.75;99.31
9764;BME280;4921;43.214;27.936;2022-10-13T00:34:55;101804.78;;;16.69;100.00
9764;BME280;4921;43.214;27.936;2022-10-13T00:37:22;101801.38;;;16.58;100.00
9764;BME280;4921;43.214;27.936;2022-10-13T00:39:50;101807.97;;;16.63;100.00
9764;BME280;4921;43.214;27.936;2022-10-13T00:42:17;101810.06;;;16.60;100.00
9764;BME280;4921;43.214;27.936;2022-10-13T00:45:03;101812.72;;;16.60;100.00
9764;BME280;4921;43.214;27.936;2022-10-13T00:47:35;101809.91;;;16.61;100.00
9764;BME280;4921;43.214;27.936;2022-10-13T00:50:04;101810.63;;;16.63;100.00
9764;BME280;4921;43.214;27.936;2022-10-13T00:52:32;101805.72;;;16.59;100.00
9764;BME280;4921;43.214;27.936;2022-10-13T00:55:01;101799.44;;;16.60;100.00
9764;BME280;4921;43.214;27.936;2022-10-13T00:57:29;101801.41;;;16.67;100.00
9764;BME280;4921;43.214;27.936;2022-10-13T00:59:58;101802.81;;;16.62;100.00
9764;BME280;4921;43.214;27.936;2022-10-13T01:02:30;101800.16;;;16.62;100.00
9764;BME280;4921;43.214;27.936;2022-10-13T01:04:58;101799.28;;;16.61;100.00
9764;BME280;4921;43.214;27.936;2022-10-13T01:07:25;101799.44;;;16.60;100.00
9764;BME280;4921;43.214;27.936;2022-10-13T01:09:52;101808.91;;;16.53;100.00
9764;BME280;4921;43.214;27.936;2022-10-13T01:12:35;101806.25;;;16.53;100.00
9764;BME280;4921;43.214;27.936;2022-10-13T01:15:10;101800.22;;;16.51;100.00
9764;BME280;4921;43.214;27.936;2022-10-13T01:17:44;101802.03;;;16.50;100.00
9764;BME280;4921;43.214;27.936;2022-10-13T01:20:36;101805.00;;;16.57;100.00
9764;BME280;4921;43.214;27.936;2022-10-13T01:23:33;101804.22;;;16.66;100.00
9764;BME280;4921;43.214;27.936;2022-10-13T01:26:17;101800.00;;;16.63;100.00
9764;BME280;4921;43.214;27.936;2022-10-13T01:29:10;101802.13;;;16.69;100.00
9764;BME280;4921;43.214;27.936;2022-10-13T01:31:46;101803.06;;;16.59;100.00
9764;BME280;4921;43.214;27.936;2022-10-13T01:34:19;101799.03;;;16.64;100.00
9764;BME280;4921;43.214;27.936;2022-10-13T01:37:08;101791.47;;;16.60;100.00
9764;BME280;4921;43.214;27.936;2022-10-13T01:39:42;101796.19;;;16.56;100.00
9764;BME280;4921;43.214;27.936;2022-10-13T01:42:14;101789.72;;;16.49;100.00
9764;BME280;4921;43.214;27.936;2022-10-13T01:44:48;101797.91;;;16.46;100.00
9764;BME280;4921;43.214;27.936;2022-10-13T01:47:18;101798.91;;;16.45;100.00
9764;BME280;4921;43.214;27.936;2022-10-13T01:49:47;101798.91;;;16.45;100.00
9764;BME280;4921;43.214;27.936;2022-10-13T01:52:18;101797.47;;;16.41;100.00
9764;BME280;4921;43.214;27.936;2022-10-13T01:54:47;101789.97;;;16.46;100.00
9764;BME280;4921;43.214;27.936;2022-10-13T01:57:29;101786.44;;;16.46;100.00
9764;BME280;4921;43.214;27.936;2022-10-13T01:59:57;101789.81;;;16.48;100.00
9764;BME280;4921;43.214;27.936;2022-10-13T02:02:30;101794.69;;;16.43;100.00
9764;BME280;4921;43.214;27.936;2022-10-13T02:05:07;101797.75;;;16.38;100.00
9764;BME280;4921;43.214;27.936;2022-10-13T02:07:42;101803.44;;;16.34;100.00
9764;BME280;4921;43.214;27.936;2022-10-13T02:10:16;101808.88;;;16.32;100.00
9764;BME280;4921;43.214;27.936;2022-10-13T02:12:49;101797.56;;;16.30;100.00
9764;BME280;4921;43.214;27.936;2022-10-13T02:15:20;101800.31;;;16.29;100.00
9764;BME280;4921;43.214;27.936;2022-10-13T02:17:50;101809.53;;;16.25;100.00
9764;BME280;4921;43.214;27.936;2022-10-13T02:20:19;101805.31;;;16.22;100.00
9764;BME280;4921;43.214;27.936;2022-10-13T02:22:50;101800.28;;;16.19;100.00
9764;BME280;4921;43.214;27.936;2022-10-13T02:25:20;101805.59;;;16.19;100.00
9764;BME280;4921;43.214;27.936;2022-10-13T02:27:47;101806.91;;;16.14;100.00
9764;BME280;4921;43.214;27.936;2022-10-13T02:30:20;101805.97;;;16.15;100.00
9764;BME280;4921;43.214;27.936;2022-10-13T02:32:49;101813.47;;;16.10;100.00
9764;BME280;4921;43.214;27.936;2022-10-13T02:35:16;101814.03;;;16.13;100.00
9764;BME280;4921;43.214;27.936;2022-10-13T02:37:43;101814.78;;;16.15;100.00
9764;BME280;4921;43.214;27.936;2022-10-13T02:40:11;101814.56;;;16.07;100.00
9764;BME280;4921;43.214;27.936;2022-10-13T02:42:38;101813.50;;;15.98;100.00
9764;BME280;4921;43.214;27.936;2022-10-13T02:45:06;101800.50;;;15.95;100.00
9764;BME280;4921;43.214;27.936;2022-10-13T02:47:33;101813.25;;;16.01;100.00
9764;BME280;4921;43.214;27.936;2022-10-13T02:50:01;101817.25;;;15.96;100.00
9764;BME280;4921;43.214;27.936;2022-10-13T02:52:28;101813.06;;;15.93;100.00
9764;BME280;4921;43.214;27.936;2022-10-13T02:54:55;101812.47;;;15.90;100.00
9764;BME280;4921;43.214;27.936;2022-10-13T02:57:22;101819.22;;;15.83;100.00
9764;BME280;4921;43.214;27.936;2022-10-13T02:59:49;101812.25;;;15.82;100.00
9764;BME280;4921;43.214;27.936;2022-10-13T03:02:16;101822.03;;;15.81;100.00
9764;BME280;4921;43.214;27.936;2022-10-13T03:04:43;101824.47;;;15.73;100.00
9764;BME280;4921;43.214;27.936;2022-10-13T03:07:11;101832.78;;;15.69;100.00
9764;BME280;4921;43.214;27.936;2022-10-13T03:09:38;101832.44;;;15.73;100.00
9764;BME280;4921;43.214;27.936;2022-10-13T03:12:06;101837.34;;;15.78;100.00
9764;BME280;4921;43.214;27.936;2022-10-13T03:14:33;101830.06;;;15.91;100.00
9764;BME280;4921;43.214;27.936;2022-10-13T03:17:00;101834.31;;;15.82;100.00
9764;BME280;4921;43.214;27.936;2022-10-13T03:19:27;101830.97;;;15.80;100.00
9764;BME280;4921;43.214;27.936;2022-10-13T03:21:54;101836.13;;;15.82;100.00
9764;BME280;4921;43.214;27.936;2022-10-13T03:24:22;101830.59;;;15.85;100.00
9764;BME280;4921;43.214;27.936;2022-10-13T03:26:49;101828.16;;;15.82;100.00
9764;BME280;4921;43.214;27.936;2022-10-13T03:29:16;101816.72;;;15.81;100.00
9764;BME280;4921;43.214;27.936;2022-10-13T03:31:44;101815.72;;;15.93;100.00
9764;BME280;4921;43.214;27.936;2022-10-13T03:34:11;101822.69;;;15.94;100.00
9764;BME280;4921;43.214;27.936;2022-10-13T03:36:38;101812.47;;;15.90;100.00
9764;BME280;4921;43.214;27.936;2022-10-13T03:39:05;101820.41;;;15.90;100.00
9764;BME280;4921;43.214;27.936;2022-10-13T03:41:34;101805.22;;;15.92;100.00
9764;BME280;4921;43.214;27.936;2022-10-13T03:44:01;101808.72;;;15.92;100.00
9764;BME280;4921;43.214;27.936;2022-10-13T03:46:28;101809.66;;;15.91;100.00
9764;BME280;4921;43.214;27.936;2022-10-13T03:48:56;101798.75;;;15.85;100.00
9764;BME280;4921;43.214;27.936;2022-10-13T03:51:23;101799.72;;;15.84;100.00
9764;BME280;4921;43.214;27.936;2022-10-13T03:53:51;101795.34;;;15.83;100.00
9764;BME280;4921;43.214;27.936;2022-10-13T03:56:21;101789.94;;;15.84;100.00
9764;BME280;4921;43.214;27.936;2022-10-13T03:58:50;101780.91;;;15.87;100.00
9764;BME280;4921;43.214;27.936;2022-10-13T04:01:19;101786.59;;;15.82;100.00
9764;BME280;4921;43.214;27.936;2022-10-13T04:03:46;101791.38;;;15.88;100.00
9764;BME280;4921;43.214;27.936;2022-10-13T04:06:13;101789.19;;;15.93;100.00
9764;BME280;4921;43.214;27.936;2022-10-13T04:08:40;101779.06;;;15.87;100.00
9764;BME280;4921;43.214;27.936;2022-10-13T04:11:10;101786.59;;;15.82;100.00
9764;BME280;4921;43.214;27.936;2022-10-13T04:13:37;101777.91;;;15.80;100.00
9764;BME280;4921;43.214;27.936;2022-10-13T04:16:07;101782.50;;;15.78;100.00
9764;BME280;4921;43.214;27.936;2022-10-13T04:18:34;101784.31;;;15.78;100.00
9764;BME280;4921;43.214;27.936;2022-10-13T04:21:06;101784.88;;;15.81;100.00
9764;BME280;4921;43.214;27.936;2022-10-13T04:23:34;101781.38;;;15.81;100.00
9764;BME280;4921;43.214;27.936;2022-10-13T04:26:02;101774.28;;;15.81;100.00
9764;BME280;4921;43.214;27.936;2022-10-13T04:28:29;101779.44;;;15.83;100.00
9764;BME280;4921;43.214;27.936;2022-10-13T04:30:58;101771.03;;;15.78;100.00
9764;BME280;4921;43.214;27.936;2022-10-13T04:33:26;101785.88;;;15.80;100.00
9764;BME280;4921;43.214;27.936;2022-10-13T04:35:53;101780.22;;;15.74;100.00
9764;BME280;4921;43.214;27.936;2022-10-13T04:38:20;101783.13;;;15.71;100.00
9764;BME280;4921;43.214;27.936;2022-10-13T04:40:47;101787.84;;;15.67;100.00
9764;BME280;4921;43.214;27.936;2022-10-13T04:43:15;101784.22;;;15.68;100.00
9764;BME280;4921;43.214;27.936;2022-10-13T04:45:42;101792.88;;;15.70;100.00
9764;BME280;4921;43.214;27.936;2022-10-13T04:48:09;101792.88;;;15.70;100.00
9764;BME280;4921;43.214;27.936;2022-10-13T04:50:38;101794.63;;;15.60;100.00
9764;BME280;4921;43.214;27.936;2022-10-13T04:53:04;101789.16;;;15.62;100.00
9764;BME280;4921;43.214;27.936;2022-10-13T04:55:34;101797.13;;;15.62;100.00
9764;BME280;4921;43.214;27.936;2022-10-13T04:58:02;101791.75;;;15.52;100.00
9764;BME280;4921;43.214;27.936;2022-10-13T05:00:29;101798.34;;;15.58;100.00
9764;BME280;4921;43.214;27.936;2022-10-13T05:02:55;101794.09;;;15.66;100.00
9764;BME280;4921;43.214;27.936;2022-10-13T05:05:22;101801.22;;;15.66;100.00
9764;BME280;4921;43.214;27.936;2022-10-13T05:07:51;101798.81;;;15.63;100.00
9764;BME280;4921;43.214;27.936;2022-10-13T05:10:18;101797.03;;;15.63;100.00
9764;BME280;4921;43.214;27.936;2022-10-13T05:12:44;101814.03;;;15.61;100.00
9764;BME280;4921;43.214;27.936;2022-10-13T05:15:11;101811.72;;;15.67;100.00
9764;BME280;4921;43.214;27.936;2022-10-13T05:17:38;101812.16;;;15.72;100.00
9764;BME280;4921;43.214;27.936;2022-10-13T05:20:06;101810.84;;;15.78;100.00
9764;BME280;4921;43.214;27.936;2022-10-13T05:22:33;101815.50;;;15.85;100.00
9764;BME280;4921;43.214;27.936;2022-10-13T05:25:02;101823.06;;;15.90;100.00
9764;BME280;4921;43.214;27.936;2022-10-13T05:27:29;101815.81;;;15.92;100.00
9764;BME280;4921;43.214;27.936;2022-10-13T05:29:56;101814.88;;;15.93;100.00
9764;BME280;4921;43.214;27.936;2022-10-13T05:32:23;101824.97;;;15.99;100.00
9764;BME280;4921;43.214;27.936;2022-10-13T05:34:50;101812.88;;;16.06;100.00
9764;BME280;4921;43.214;27.936;2022-10-13T05:37:17;101818.91;;;16.08;100.00
9764;BME280;4921;43.214;27.936;2022-10-13T05:39:47;101820.31;;;16.12;100.00
9764;BME280;4921;43.214;27.936;2022-10-13T05:42:15;101823.56;;;16.16;100.00
9764;BME280;4921;43.214;27.936;2022-10-13T05:44:42;101819.91;;;16.28;100.00
9764;BME280;4921;43.214;27.936;2022-10-13T05:47:09;101819.75;;;16.29;100.00
9764;BME280;4921;43.214;27.936;2022-10-13T05:49:36;101828.63;;;16.39;100.00
9764;BME280;4921;43.214;27.936;2022-10-13T05:52:07;101830.03;;;16.43;100.00
9764;BME280;4921;43.214;27.936;2022-10-13T05:54:37;101831.00;;;16.53;100.00
9764;BME280;4921;43.214;27.936;2022-10-13T05:57:10;101835.63;;;16.61;100.00
9764;BME280;4921;43.214;27.936;2022-10-13T05:59:42;101835.94;;;16.67;100.00
9764;BME280;4921;43.214;27.936;2022-10-13T06:02:11;101839.31;;;16.69;100.00
9764;BME280;4921;43.214;27.936;2022-10-13T06:04:42;101844.69;;;16.79;100.00
9764;BME280;4921;43.214;27.936;2022-10-13T06:07:11;101832.56;;;16.86;100.00
9764;BME280;4921;43.214;27.936;2022-10-13T06:09:39;101847.59;;;16.97;100.00
9764;BME280;4921;43.214;27.936;2022-10-13T06:12:07;101828.28;;;17.04;100.00
9764;BME280;4921;43.214;27.936;2022-10-13T06:14:35;101831.84;;;17.14;100.00
9764;BME280;4921;43.214;27.936;2022-10-13T06:17:03;101835.22;;;17.26;100.00
9764;BME280;4921;43.214;27.936;2022-10-13T06:19:30;101833.03;;;17.31;100.00
9764;BME280;4921;43.214;27.936;2022-10-13T06:21:57;101833.88;;;17.41;100.00
9764;BME280;4921;43.214;27.936;2022-10-13T06:24:24;101827.88;;;17.48;100.00
9764;BME280;4921;43.214;27.936;2022-10-13T06:26:51;101828.78;;;17.59;100.00
9764;BME280;4921;43.214;27.936;2022-10-13T06:29:18;101823.88;;;17.64;100.00
9764;BME280;4921;43.214;27.936;2022-10-13T06:31:45;101820.25;;;17.74;100.00
9764;BME280;4921;43.214;27.936;2022-10-13T06:34:13;101825.56;;;17.84;100.00
9764;BME280;4921;43.214;27.936;2022-10-13T06:36:40;101825.84;;;17.90;100.00
9764;BME280;4921;43.214;27.936;2022-10-13T06:39:07;101827.53;;;18.01;100.00
9764;BME280;4921;43.214;27.936;2022-10-13T06:41:34;101826.69;;;18.10;100.00
9764;BME280;4921;43.214;27.936;2022-10-13T06:44:01;101824.59;;;18.23;98.99
9764;BME280;4921;43.214;27.936;2022-10-13T06:46:28;101825.56;;;18.32;99.20
9764;BME280;4921;43.214;27.936;2022-10-13T06:48:55;101817.69;;;18.40;100.00
9764;BME280;4921;43.214;27.936;2022-10-13T06:51:23;101822.88;;;18.51;100.00
9764;BME280;4921;43.214;27.936;2022-10-13T06:53:50;101830.19;;;18.58;100.00
9764;BME280;4921;43.214;27.936;2022-10-13T06:56:17;101838.81;;;18.70;99.85
9764;BME280;4921;43.214;27.936;2022-10-13T06:58:44;101838.44;;;18.65;97.75
9764;BME280;4921;43.214;27.936;2022-10-13T07:01:12;101830.13;;;18.77;97.62
9764;BME280;4921;43.214;27.936;2022-10-13T07:03:39;101835.16;;;18.80;97.91
9764;BME280;4921;43.214;27.936;2022-10-13T07:06:07;101840.63;;;18.79;97.48
9764;BME280;4921;43.214;27.936;2022-10-13T07:08:36;101836.91;;;18.62;97.85
9764;BME280;4921;43.214;27.936;2022-10-13T07:11:08;101836.56;;;18.84;97.40
9764;BME280;4921;43.214;27.936;2022-10-13T07:13:36;101833.13;;;19.01;96.99
9764;BME280;4921;43.214;27.936;2022-10-13T07:16:04;101836.59;;;19.02;93.81
9764;BME280;4921;43.214;27.936;2022-10-13T07:18:32;101819.09;;;18.99;94.24
9764;BME280;4921;43.214;27.936;2022-10-13T07:20:59;101828.72;;;18.73;90.59
9764;BME280;4921;43.214;27.936;2022-10-13T07:23:27;101822.91;;;18.87;91.66
9764;BME280;4921;43.214;27.936;2022-10-13T07:25:56;101809.94;;;19.02;87.68
9764;BME280;4921;43.214;27.936;2022-10-13T07:28:23;101808.13;;;19.02;89.20
9764;BME280;4921;43.214;27.936;2022-10-13T07:30:51;101821.25;;;18.86;86.75
9764;BME280;4921;43.214;27.936;2022-10-13T07:33:19;101826.88;;;18.83;91.15
9764;BME280;4921;43.214;27.936;2022-10-13T07:35:46;101820.03;;;19.08;90.30
9764;BME280;4921;43.214;27.936;2022-10-13T07:38:13;101814.53;;;19.19;89.31
9764;BME280;4921;43.214;27.936;2022-10-13T07:40:40;101813.78;;;19.17;87.98
9764;BME280;4921;43.214;27.936;2022-10-13T07:43:08;101807.13;;;19.31;87.47
9764;BME280;4921;43.214;27.936;2022-10-13T07:45:35;101809.94;;;19.02;73.88
9764;BME280;4921;43.214;27.936;2022-10-13T07:48:02;101810.19;;;19.09;69.82
9764;BME280;4921;43.214;27.936;2022-10-13T07:50:29;101810.31;;;19.17;66.82
9764;BME280;4921;43.214;27.936;2022-10-13T07:52:56;101802.94;;;19.28;64.42
9764;BME280;4921;43.214;27.936;2022-10-13T07:55:23;101791.56;;;19.26;64.57
9764;BME280;4921;43.214;27.936;2022-10-13T07:57:50;101798.44;;;19.38;61.01
9764;BME280;4921;43.214;27.936;2022-10-13T08:00:18;101815.91;;;19.23;58.86
9764;BME280;4921;43.214;27.936;2022-10-13T08:02:48;101798.28;;;19.30;58.35
9764;BME280;4921;43.214;27.936;2022-10-13T08:05:15;101795.13;;;19.17;59.47
9764;BME280;4921;43.214;27.936;2022-10-13T08:07:42;101807.97;;;19.41;59.18
9764;BME280;4921;43.214;27.936;2022-10-13T08:10:10;101816.50;;;19.44;56.57
9764;BME280;4921;43.214;27.936;2022-10-13T08:12:37;101792.81;;;19.32;55.67
9764;BME280;4921;43.214;27.936;2022-10-13T08:15:05;101800.50;;;19.44;56.37
9764;BME280;4921;43.214;27.936;2022-10-13T08:17:33;101801.03;;;19.48;54.74
9764;BME280;4921;43.214;27.936;2022-10-13T08:20:02;101806.53;;;19.64;54.50
9764;BME280;4921;43.214;27.936;2022-10-13T08:22:29;101810.19;;;19.63;54.95
9764;BME280;4921;43.214;27.936;2022-10-13T08:24:58;101809.91;;;19.66;54.77
9764;BME280;4921;43.214;27.936;2022-10-13T08:27:25;101791.72;;;19.52;52.85
9764;BME280;4921;43.214;27.936;2022-10-13T08:29:53;101814.78;;;19.70;53.62
9764;BME280;4921;43.214;27.936;2022-10-13T08:32:20;101809.22;;;19.64;52.54
9764;BME280;4921;43.214;27.936;2022-10-13T08:34:49;101811.72;;;19.65;53.61
9764;BME280;4921;43.214;27.936;2022-10-13T08:37:17;101813.09;;;19.87;53.16
9764;BME280;4921;43.214;27.936;2022-10-13T08:39:46;101812.94;;;19.89;53.79
9764;BME280;4921;43.214;27.936;2022-10-13T08:42:15;101813.72;;;19.81;52.95
9764;BME280;4921;43.214;27.936;2022-10-13T08:44:45;101804.84;;;19.81;53.02
9764;BME280;4921;43.214;27.936;2022-10-13T08:47:21;101820.81;;;19.72;52.67
9764;BME280;4921;43.214;27.936;2022-10-13T08:49:51;101813.94;;;19.70;51.90
9764;BME280;4921;43.214;27.936;2022-10-13T08:52:21;101805.72;;;19.81;51.25
9764;BME280;4921;43.214;27.936;2022-10-13T08:54:48;101817.91;;;19.84;53.32
9764;BME280;4921;43.214;27.936;2022-10-13T08:57:16;101806.00;;;19.96;53.15
9764;BME280;4921;43.214;27.936;2022-10-13T08:59:43;101800.19;;;20.00;51.21
9764;BME280;4921;43.214;27.936;2022-10-13T09:02:12;101809.34;;;19.80;50.21
9764;BME280;4921;43.214;27.936;2022-10-13T09:04:42;101811.94;;;19.72;51.53
9764;BME280;4921;43.214;27.936;2022-10-13T09:07:17;101804.00;;;19.98;51.42
9764;BME280;4921;43.214;27.936;2022-10-13T09:09:49;101808.28;;;19.91;50.31
9764;BME280;4921;43.214;27.936;2022-10-13T09:12:17;101815.03;;;19.95;51.33
9764;BME280;4921;43.214;27.936;2022-10-13T09:14:56;101819.97;;;19.90;52.11
9764;BME280;4921;43.214;27.936;2022-10-13T09:17:24;101813.94;;;19.70;51.68
9764;BME280;4921;43.214;27.936;2022-10-13T09:19:57;101806.53;;;19.64;52.38
9764;BME280;4921;43.214;27.936;2022-10-13T09:22:28;101820.97;;;19.71;52.61
9764;BME280;4921;43.214;27.936;2022-10-13T09:25:16;101811.50;;;19.76;58.66
9764;BME280;4921;43.214;27.936;2022-10-13T09:27:46;101813.25;;;19.86;56.05
9764;BME280;4921;43.214;27.936;2022-10-13T09:30:31;101806.38;;;19.83;55.50
9764;BME280;4921;43.214;27.936;2022-10-13T09:33:19;101815.63;;;19.71;49.09
9764;BME280;4921;43.214;27.936;2022-10-13T09:35:48;101812.25;;;19.69;51.84
9764;BME280;4921;43.214;27.936;2022-10-13T09:38:19;101814.47;;;19.56;55.88
9764;BME280;4921;43.214;27.936;2022-10-13T09:40:57;101815.97;;;19.41;60.63
9764;BME280;4921;43.214;27.936;2022-10-13T09:43:29;101819.25;;;19.25;58.09
9764;BME280;4921;43.214;27.936;2022-10-13T09:45:57;101822.03;;;19.24;60.86
9764;BME280;4921;43.214;27.936;2022-10-13T09:48:26;101811.69;;;19.48;60.54
9764;BME280;4921;43.214;27.936;2022-10-13T09:50:55;101813.66;;;19.46;61.57
9764;BME280;4921;43.214;27.936;2022-10-13T09:53:28;101813.66;;;19.46;59.05
9764;BME280;4921;43.214;27.936;2022-10-13T09:56:17;101807.13;;;19.31;61.00
9764;BME280;4921;43.214;27.936;2022-10-13T09:58:49;101800.41;;;19.27;62.04
9764;BME280;4921;43.214;27.936;2022-10-13T10:01:23;101804.38;;;19.23;61.50
9764;BME280;4921;43.214;27.936;2022-10-13T10:03:52;101809.75;;;19.13;63.67
9764;BME280;4921;43.214;27.936;2022-10-13T10:06:21;101808.28;;;19.01;66.59
9764;BME280;4921;43.214;27.936;2022-10-13T10:08:53;101810.50;;;19.06;67.00
9764;BME280;4921;43.214;27.936;2022-10-13T10:11:26;101803.38;;;18.96;66.93
9764;BME280;4921;43.214;27.936;2022-10-13T10:13:54;101797.91;;;18.98;67.50
9764;BME280;4921;43.214;27.936;2022-10-13T10:16:27;101803.91;;;19.00;69.47
9764;BME280;4921;43.214;27.936;2022-10-13T10:19:00;101797.94;;;19.16;69.18
9764;BME280;4921;43.214;27.936;2022-10-13T10:21:33;101799.00;;;19.05;68.19
9764;BME280;4921;43.214;27.936;2022-10-13T10:29:31;101783.00;;;19.05;69.19
9764;BME280;4921;43.214;27.936;2022-10-13T10:40:35;101775.97;;;18.77;73.37
9764;BME280;4921;43.214;27.936;2022-10-13T10:43:26;101769.78;;;18.76;75.76
9764;BME280;4921;43.214;27.936;2022-10-13T10:45:59;101772.00;;;18.81;74.73
9764;BME280;4921;43.214;27.936;2022-10-13T10:48:32;101770.84;;;18.93;73.59
9764;BME280;4921;43.214;27.936;2022-10-13T10:51:01;101765.16;;;19.06;71.95
9764;BME280;4921;43.214;27.936;2022-10-13T10:53:35;101763.81;;;18.92;73.15
9764;BME280;4921;43.214;27.936;2022-10-13T10:56:11;101759.34;;;18.92;74.41
9764;BME280;4921;43.214;27.936;2022-10-13T10:58:46;101755.38;;;18.96;74.10
9764;BME280;4921;43.214;27.936;2022-10-13T11:01:26;101752.97;;;19.03;73.20
9764;BME280;4921;43.214;27.936;2022-10-13T11:04:00;101741.88;;;19.08;71.22
9764;BME280;4921;43.214;27.936;2022-10-13T11:06:33;101752.72;;;18.96;72.05
9764;BME280;4921;43.214;27.936;2022-10-13T11:09:02;101738.66;;;19.04;72.58
9764;BME280;4921;43.214;27.936;2022-10-13T11:11:32;101736.28;;;19.01;71.83
9764;BME280;4921;43.214;27.936;2022-10-13T11:14:08;101739.22;;;19.25;69.84
9764;BME280;4921;43.214;27.936;2022-10-13T11:17:06;101738.44;;;19.15;68.41
9764;BME280;4921;43.214;27.936;2022-10-13T11:19:36;101728.59;;;19.16;69.45
9764;BME280;4921;43.214;27.936;2022-10-13T11:22:22;101730.78;;;19.30;68.89
9764;BME280;4921;43.214;27.936;2022-10-13T11:25:01;101725.47;;;19.47;68.26
9764;BME280;4921;43.214;27.936;2022-10-13T11:27:40;101736.00;;;19.66;67.43
9764;BME280;4921;43.214;27.936;2022-10-13T11:30:39;101731.63;;;19.48;68.92
9764;BME280;4921;43.214;27.936;2022-10-13T11:33:50;101734.41;;;19.56;69.84
9764;BME280;4921;43.214;27.936;2022-10-13T11:36:49;101725.09;;;19.60;69.19
9764;BME280;4921;43.214;27.936;2022-10-13T11:42:49;101725.25;;;19.41;65.73
9764;BME280;4921;43.214;27.936;2022-10-13T11:45:27;101721.47;;;19.34;68.39
9764;BME280;4921;43.214;27.936;2022-10-13T11:48:21;101710.97;;;19.50;68.15
9764;BME280;4921;43.214;27.936;2022-10-13T11:51:05;101715.63;;;19.65;67.70
9764;BME280;4921;43.214;27.936;2022-10-13T11:53:41;101717.44;;;19.65;67.71
9764;BME280;4921;43.214;27.936;2022-10-13T11:56:18;101701.59;;;19.63;68.19
9764;BME280;4921;43.214;27.936;2022-10-13T11:58:45;101711.66;;;19.69;65.35
9764;BME280;4921;43.214;27.936;2022-10-13T12:01:14;101711.19;;;19.74;65.21
9764;BME280;4921;43.214;27.936;2022-10-13T12:03:43;101709.53;;;19.73;64.66
9764;BME280;4921;43.214;27.936;2022-10-13T12:06:24;101713.47;;;19.87;64.77
9764;BME280;4921;43.214;27.936;2022-10-13T12:09:00;101708.97;;;19.69;66.33
9764;BME280;4921;43.214;27.936;2022-10-13T12:11:30;101701.59;;;19.63;69.79
9764;BME280;4921;43.214;27.936;2022-10-13T12:13:57;101692.47;;;19.48;68.47
9764;BME280;4921;43.214;27.936;2022-10-13T12:16:26;101697.63;;;19.50;67.31
9764;BME280;4921;43.214;27.936;2022-10-13T12:19:05;101691.16;;;19.70;66.97
9764;BME280;4921;43.214;27.936;2022-10-13T12:21:33;101691.59;;;19.83;67.48
9764;BME280;4921;43.214;27.936;2022-10-13T12:24:08;101690.41;;;19.60;66.25
9764;BME280;4921;43.214;27.936;2022-10-13T12:26:36;101686.81;;;19.51;67.64
9764;BME280;4921;43.214;27.936;2022-10-13T12:29:10;101685.31;;;19.49;67.34
9764;BME280;4921;43.214;27.936;2022-10-13T12:31:40;101669.13;;;19.50;68.01
9764;BME280;4921;43.214;27.936;2022-10-13T12:34:17;101677.53;;;19.38;70.77
9764;BME280;4921;43.214;27.936;2022-10-13T12:36:51;101676.22;;;19.42;71.00
9764;BME280;4921;43.214;27.936;2022-10-13T12:39:19;101678.59;;;19.45;69.93
9764;BME280;4921;43.214;27.936;2022-10-13T12:41:47;101675.91;;;19.27;72.87
9764;BME280;4921;43.214;27.936;2022-10-13T12:44:18;101670.03;;;19.41;72.51
9764;BME280;4921;43.214;27.936;2022-10-13T12:46:47;101671.56;;;19.61;71.34
9764;BME280;4921;43.214;27.936;2022-10-13T12:49:19;101656.84;;;19.57;70.17
9764;BME280;4921;43.214;27.936;2022-10-13T12:51:49;101665.22;;;19.62;70.34
9764;BME280;4921;43.214;27.936;2022-10-13T12:54:20;101655.25;;;19.29;68.62
9764;BME280;4921;43.214;27.936;2022-10-13T12:56:49;101659.13;;;19.35;69.72
9764;BME280;4921;43.214;27.936;2022-10-13T12:59:18;101653.13;;;19.50;68.83
9764;BME280;4921;43.214;27.936;2022-10-13T13:01:51;101645.03;;;19.60;67.63
9764;BME280;4921;43.214;27.936;2022-10-13T13:07:29;101642.81;;;19.55;66.33
9764;BME280;4921;43.214;27.936;2022-10-13T13:10:14;101650.84;;;19.55;65.46
9764;BME280;4921;43.214;27.936;2022-10-13T13:12:43;101641.97;;;19.55;65.80
9764;BME280;4921;43.214;27.936;2022-10-13T13:21:05;101654.47;;;19.54;64.44
9764;BME280;4921;43.214;27.936;2022-10-13T13:23:33;101650.44;;;19.33;63.41
9764;BME280;4921;43.214;27.936;2022-10-13T13:26:02;101645.66;;;19.36;64.41
9764;BME280;4921;43.214;27.936;2022-10-13T13:28:32;101653.28;;;19.49;64.51
9764;BME280;4921;43.214;27.936;2022-10-13T13:30:59;101650.16;;;19.36;62.97
9764;BME280;4921;43.214;27.936;2022-10-13T13:33:26;101656.00;;;19.39;62.97
9764;BME280;4921;43.214;27.936;2022-10-13T13:35:53;101664.69;;;19.41;63.14
9764;BME280;4921;43.214;27.936;2022-10-13T13:38:20;101668.44;;;19.48;63.65